Latest Weather Observations for Creal Reef

IDQ60801

Issued at 7:05 pm EST Thursday 31 July 2014 (issued every 30 minutes, with the page automatically refreshed every 10 minutes)

About weather observations | Map of weather stations | Latest weather observations for QLD | Other Formats
Station Details ID: 200736 Name: CREAL REEF Lat: -20.53 Lon: 150.38 Height: 1.7 m
Data from the previous 72 hours. | See also: Recent months for locations in Queensland
Date/Time
EST
Temp
°C
App
Temp
°C
Dew
Point
Rel
Hum
%
Delta-T
°C
Wind Press
QNH
hPa
Press
MSL
hPa
Rain
since 9 am
mm
Dir
 
Spd
km/h
Gust
km/h
Spd
kts
Gust
kts
31/07:00pm 21.0 - - - - SE 22 26 12 14 1017.3 - -
31/06:30pm 21.0 - - - - SE 24 26 13 14 1017.0 - -
31/06:20pm 20.8 - - - - SE 26 - 14 - - 1016.8 -
31/06:00pm 21.0 - - - - SE 26 30 14 16 1016.8 - -
31/05:30pm 21.1 - - - - ESE 24 26 13 14 1016.6 - -
31/05:20pm 21.1 - - - - ESE 22 - 12 - - 1016.6 -
31/05:00pm 20.8 - - - - SE 19 24 10 13 1016.6 - -
31/04:30pm 21.1 - - - - E 17 20 9 11 1016.7 - -
31/04:20pm 21.0 - - - - E 20 - 11 - - 1016.6 -
31/04:00pm 21.9 - - - - SSE 17 22 9 12 1016.5 - -
31/03:30pm 22.0 - - - - SSE 19 24 10 13 1016.3 - -
31/03:20pm 21.9 - - - - SSE 19 - 10 - - 1016.1 -
31/03:00pm 21.9 - - - - SSE 22 26 12 14 1016.3 - -
31/02:30pm 21.7 - - - - S 22 24 12 13 1016.4 - -
31/02:20pm 21.7 - - - - S 22 - 12 - - 1016.4 -
31/02:00pm 22.8 - - - - SE 15 17 8 9 1016.7 - -
31/01:30pm 22.6 - - - - ESE 15 17 8 9 1017.0 - -
31/01:20pm 22.7 - - - - ESE 17 - 9 - - 1017.0 -
31/01:00pm 22.6 - - - - ESE 17 20 9 11 1017.4 - -
31/12:30pm 22.5 - - - - SE 15 17 8 9 1017.8 - -
31/12:20pm 22.6 - - - - SE 13 - 7 - - 1017.9 -
31/12:00pm 22.6 - - - - SE 13 15 7 8 1018.3 - -
31/11:30am 22.5 - - - - SE 9 11 5 6 1018.6 - -
31/11:20am 22.3 - - - - SE 11 - 6 - - 1018.7 -
31/11:00am 22.2 - - - - SSE 13 15 7 8 1019.1 - -
31/10:30am 21.9 - - - - SSE 13 17 7 9 1019.4 - -
31/10:20am 21.9 - - - - SSE 15 - 8 - - 1019.4 -
31/10:00am 21.6 - - - - SSE 17 20 9 11 1019.7 - -
31/09:30am 21.4 - - - - SE 24 26 13 14 1019.8 - -
31/09:20am 21.4 - - - - SE 24 - 13 - - 1019.7 -
31/09:00am 21.4 - - - - SE 24 30 13 16 1019.7 - -
31/08:30am 21.9 - - - - SSE 11 13 6 7 1019.5 - -
31/08:20am 21.8 - - - - SE 11 - 6 - - 1019.4 -
31/08:00am 21.5 - - - - SSE 11 13 6 7 1019.5 - -
31/07:30am 21.0 - - - - SSE 17 20 9 11 1019.2 - -
31/07:20am 21.5 - - - - E 9 - 5 - - 1019.0 -
31/07:00am 20.3 - - - - E 20 28 11 15 1019.1 - -
31/06:30am 20.8 - - - - WSW 9 11 5 6 1018.7 - -
31/06:20am 20.5 - - - - SW 11 - 6 - - 1018.5 -
31/06:00am 20.3 - - - - W 11 13 6 7 1018.6 - -
31/05:30am 19.6 - - - - WSW 9 11 5 6 1018.6 - -
31/05:20am 19.5 - - - - SSW 9 - 5 - - 1018.6 -
31/05:00am 19.3 - - - - SSE 13 17 7 9 1018.6 - -
31/04:30am 19.0 - - - - ESE 24 30 13 16 1018.6 - -
31/04:20am 19.4 - - - - E 30 - 16 - - 1018.6 -
31/04:18am 19.2 - - - - E 30 32 16 17 1018.7 - -
31/04:00am 19.5 - - - - ENE 37 41 20 22 1018.5 - -
31/03:30am 20.1 - - - - ENE 37 41 20 22 1018.5 - -
31/03:29am 20.4 - - - - ENE 37 41 20 22 1018.5 - -
31/03:20am 20.9 - - - - NE 28 - 15 - - 1018.3 -
31/03:00am 20.5 - - - - NNE 32 35 17 19 1018.4 - -
31/02:30am 20.4 - - - - NE 30 37 16 20 1018.6 - -
31/02:20am 20.1 - - - - NE 35 - 19 - - 1018.6 -
31/02:00am 19.9 - - - - NE 35 41 19 22 1018.9 - -
31/01:30am 20.3 - - - - ENE 32 41 17 22 1018.9 - -
31/01:20am 22.0 - - - - ESE 28 - 15 - - 1018.8 -
31/01:00am 21.4 - - - - ESE 26 28 14 15 1019.2 - -
31/12:30am 21.5 - - - - ESE 30 35 16 19 1019.3 - -
31/12:20am 21.5 - - - - E 33 - 18 - - 1019.2 -
31/12:00am 21.7 - - - - ESE 28 32 15 17 1019.3 - -
 
Date/Time
EST
Temp
°C
App
Temp
°C
Dew
Point
Rel
Hum
%
Delta-T
°C
Wind Press
QNH
hPa
Press
MSL
hPa
Rain
since 9 am
mm
Dir
 
Spd
km/h
Gust
km/h
Spd
kts
Gust
kts
30/11:30pm 21.9 - - - - ESE 30 33 16 18 1019.6 - -
30/11:20pm 21.8 - - - - ESE 30 - 16 - - 1019.6 -
30/11:00pm 21.6 - - - - ESE 26 32 14 17 1019.8 - -
30/10:30pm 21.6 - - - - ESE 30 35 16 19 1019.9 - -
30/10:20pm 21.4 - - - - SE 32 - 17 - - 1019.8 -
30/10:00pm 21.4 - - - - SE 32 35 17 19 1020.0 - -
30/09:30pm 21.8 - - - - SE 33 39 18 21 1020.1 - -
30/09:20pm 21.7 - - - - SSE 33 - 18 - - 1020.0 -
30/09:00pm 21.7 - - - - SSE 32 39 17 21 1020.0 - -
30/08:30pm 21.6 - - - - SSE 30 37 16 20 1019.9 - -
30/08:20pm 21.4 - - - - SSE 30 - 16 - - 1019.7 -
30/08:00pm 21.4 - - - - SSE 28 37 15 20 1019.8 - -
30/07:30pm 21.2 - - - - SSE 30 35 16 19 1019.6 - -
30/07:20pm 21.2 - - - - S 32 - 17 - - 1019.4 -
30/07:00pm 21.1 - - - - SSE 32 37 17 20 1019.5 - -
30/06:30pm 21.0 - - - - SSE 28 32 15 17 1019.3 - -
30/06:20pm 20.8 - - - - SSE 26 - 14 - - 1019.2 -
30/06:00pm 20.6 - - - - SSE 28 35 15 19 1019.3 - -
30/05:30pm 20.9 - - - - SSE 24 32 13 17 1019.1 - -
30/05:20pm 20.3 - - - - S 22 - 12 - - 1019.0 -
30/05:00pm 19.7 - - - - S 26 30 14 16 1018.9 - -
30/04:30pm 19.0 - - - - SSE 35 44 19 24 1018.9 - -
30/04:20pm 19.5 - - - - SE 35 - 19 - - 1018.9 -
30/04:00pm 21.1 - - - - SE 33 39 18 21 1018.8 - -
30/03:30pm 21.0 - - - - SSE 32 35 17 19 1018.6 - -
30/03:20pm 21.3 - - - - SSE 28 - 15 - - 1018.4 -
30/03:00pm 21.2 - - - - SSE 26 32 14 17 1018.5 - -
30/02:30pm 21.1 - - - - SSE 26 32 14 17 1018.7 - -
30/02:20pm 21.2 - - - - SSE 24 - 13 - - 1018.7 -
30/02:00pm 21.0 - - - - SSE 26 35 14 19 1018.9 - -
30/01:30pm 21.0 - - - - SSE 28 35 15 19 1019.4 - -
30/01:20pm 20.8 - - - - SSE 32 - 17 - - 1019.5 -
30/01:00pm 21.4 - - - - SSE 26 33 14 18 1019.8 - -
30/12:30pm 21.6 - - - - SSE 26 30 14 16 1020.1 - -
30/12:20pm 21.5 - - - - SSE 22 - 12 - - 1020.2 -
30/12:00pm 21.8 - - - - SE 24 30 13 16 1020.8 - -
30/11:30am 21.4 - - - - SE 33 39 18 21 1021.4 - -
30/11:20am 21.5 - - - - SE 33 - 18 - - 1021.4 -
30/11:00am 22.2 - - - - SSE 30 33 16 18 1021.7 - -
30/10:30am 22.4 - - - - SE 24 28 13 15 1021.9 - -
30/10:20am 22.4 - - - - SE 24 - 13 - - 1021.9 -
30/10:00am 22.5 - - - - SE 20 22 11 12 1021.9 - -
30/09:30am 22.4 - - - - ESE 24 26 13 14 1022.0 - -
30/09:20am 22.4 - - - - SE 26 - 14 - - 1021.9 -
30/09:00am 22.4 - - - - ESE 26 30 14 16 1022.0 - -
30/08:30am 22.7 - - - - ESE 20 24 11 13 1021.8 - -
30/08:20am 22.6 - - - - ESE 19 - 10 - - 1021.7 -
30/08:00am 22.6 - - - - E 15 19 8 10 1021.5 - -
30/07:30am 22.8 - - - - E 17 19 9 10 1021.3 - -
30/07:20am 22.7 - - - - E 19 - 10 - - 1021.1 -
30/07:00am 22.6 - - - - ESE 13 17 7 9 1020.9 - -
30/06:30am 22.3 - - - - SE 17 20 9 11 1020.7 - -
30/06:20am 22.3 - - - - SE 19 - 10 - - 1020.5 -
30/06:00am 22.4 - - - - SE 19 20 10 11 1020.4 - -
30/05:30am 22.3 - - - - ESE 19 22 10 12 1020.1 - -
30/05:20am 22.3 - - - - ESE 19 - 10 - - 1019.9 -
30/05:00am 22.3 - - - - ESE 19 22 10 12 1019.8 - -
30/04:30am 22.2 - - - - SE 20 24 11 13 1019.7 - -
30/04:20am 22.2 - - - - SSE 19 - 10 - - 1019.5 -
30/04:00am 22.1 - - - - SSE 19 24 10 13 1019.7 - -
30/03:30am 22.0 - - - - SE 20 24 11 13 1019.6 - -
30/03:20am 22.1 - - - - SE 20 - 11 - - 1019.5 -
30/03:00am 22.0 - - - - SE 20 22 11 12 1019.6 - -
30/02:30am 22.0 - - - - SE 22 26 12 14 1019.8 - -
30/02:20am 22.0 - - - - SE 24 - 13 - - 1019.7 -
30/02:00am 22.0 - - - - SE 24 28 13 15 1020.0 - -
30/01:30am 22.0 - - - - SE 22 26 12 14 1020.4 - -
30/01:20am 22.0 - - - - SE 24 - 13 - - 1020.3 -
30/01:00am 21.9 - - - - SE 24 26 13 14 1020.5 - -
30/12:30am 21.9 - - - - ESE 24 30 13 16 1020.9 - -
30/12:20am 22.0 - - - - ESE 24 - 13 - - 1020.8 -
30/12:00am 22.0 - - - - ESE 20 22 11 12 1020.9 - -
 
Date/Time
EST
Temp
°C
App
Temp
°C
Dew
Point
Rel
Hum
%
Delta-T
°C
Wind Press
QNH
hPa
Press
MSL
hPa
Rain
since 9 am
mm
Dir
 
Spd
km/h
Gust
km/h
Spd
kts
Gust
kts
29/11:30pm 21.9 - - - - ESE 20 24 11 13 1020.9 - -
29/11:20pm 21.9 - - - - ESE 20 - 11 - - 1020.9 -
29/11:00pm 21.8 - - - - ESE 22 26 12 14 1021.0 - -
29/10:30pm 21.7 - - - - ESE 22 26 12 14 1021.1 - -
29/10:20pm 21.7 - - - - ESE 22 - 12 - - 1021.0 -
29/10:00pm 21.6 - - - - ESE 24 28 13 15 1021.1 - -
29/09:30pm 21.7 - - - - ESE 24 30 13 16 1020.9 - -
29/09:20pm 21.6 - - - - ESE 26 - 14 - - 1020.8 -
29/09:00pm 21.6 - - - - ESE 24 28 13 15 1020.9 - -
29/08:30pm 21.7 - - - - ESE 26 30 14 16 1020.8 - -
29/08:20pm 21.5 - - - - ESE 26 - 14 - - 1020.7 -
29/08:00pm 21.6 - - - - ESE 24 28 13 15 1020.7 - -
29/07:30pm 21.6 - - - - ESE 24 28 13 15 1020.5 - -
29/07:20pm 21.5 - - - - ESE 26 - 14 - - 1020.4 -
29/07:00pm 21.5 - - - - ESE 26 32 14 17 1020.3 - -
29/06:30pm 21.3 - - - - ESE 26 32 14 17 1020.2 - -
29/06:20pm 21.4 - - - - ESE 26 - 14 - - 1020.0 -
29/06:00pm 21.3 - - - - SE 26 28 14 15 1020.1 - -
29/05:30pm 21.4 - - - - SE 24 30 13 16 1019.9 - -
29/05:20pm 21.4 - - - - SE 22 - 12 - - 1019.8 -
29/05:00pm 21.5 - - - - SE 22 28 12 15 1019.8 - -
29/04:30pm 21.6 - - - - SSE 19 26 10 14 1019.8 - -
29/04:20pm 21.6 - - - - SSE 19 - 10 - - 1019.5 -
29/04:00pm 21.5 - - - - SSE 20 26 11 14 1019.4 - -
29/03:30pm 21.6 - - - - SSE 22 28 12 15 1019.4 - -
29/03:20pm 21.6 - - - - SSE 20 - 11 - - 1019.3 -
29/03:00pm 21.6 - - - - SSE 20 26 11 14 1019.4 - -
29/02:30pm 21.6 - - - - SSE 20 26 11 14 1019.4 - -
29/02:20pm 21.6 - - - - SSE 19 - 10 - - 1019.3 -
29/02:00pm 21.6 - - - - SSE 20 24 11 13 1019.6 - -
29/01:30pm 21.7 - - - - SSE 20 24 11 13 1020.0 - -
29/01:20pm 21.7 - - - - SSE 20 - 11 - - 1020.0 -
29/01:00pm 21.8 - - - - SSE 20 26 11 14 1020.4 - -
29/12:30pm 21.8 - - - - SSE 20 28 11 15 1020.7 - -
29/12:20pm 21.8 - - - - SSE 22 - 12 - - 1020.7 -
29/12:00pm 21.8 - - - - SSE 22 30 12 16 1021.1 - -
29/11:30am 21.9 - - - - SSE 22 30 12 16 1021.3 - -
29/11:20am 21.9 - - - - SSE 24 - 13 - - 1021.4 -
29/11:00am 22.0 - - - - SSE 22 28 12 15 1021.6 - -
29/10:30am 22.1 - - - - SSE 22 28 12 15 1021.8 - -
29/10:20am 22.1 - - - - SSE 22 - 12 - - 1021.8 -
29/10:00am 22.2 - - - - SSE 24 30 13 16 1022.1 - -
29/09:30am 22.1 - - - - SE 26 30 14 16 1022.2 - -
29/09:20am 22.1 - - - - SE 24 - 13 - - 1022.2 -
29/09:00am 22.2 - - - - SSE 22 28 12 15 1022.4 - -
29/08:30am 22.1 - - - - SSE 20 26 11 14 1022.2 - -
29/08:20am 22.0 - - - - SSE 20 - 11 - - 1022.0 -
29/08:00am 21.9 - - - - SSE 22 26 12 14 1022.0 - -
29/07:30am 21.8 - - - - SSE 22 28 12 15 1021.8 - -
29/07:20am 21.9 - - - - SSE 19 - 10 - - 1021.7 -
29/07:00am 21.7 - - - - SSE 17 20 9 11 1021.6 - -
29/06:30am 21.5 - - - - SSE 15 19 8 10 1021.3 - -
29/06:20am 21.5 - - - - SSE 13 - 7 - - 1021.2 -
29/06:00am 21.4 - - - - SSE 13 15 7 8 1021.2 - -
29/05:30am 21.5 - - - - SSE 13 17 7 9 1020.8 - -
29/05:20am 21.4 - - - - SE 13 - 7 - - 1020.6 -
29/05:00am 21.4 - - - - ESE 13 17 7 9 1020.7 - -
29/04:30am 21.4 - - - - SE 15 19 8 10 1020.4 - -
29/04:20am 21.4 - - - - SE 15 - 8 - - 1020.3 -
29/04:00am 21.4 - - - - SE 15 19 8 10 1020.3 - -
29/03:30am 21.4 - - - - SE 15 19 8 10 1020.2 - -
29/03:20am 21.4 - - - - SE 15 - 8 - - 1020.1 -
29/03:00am 21.5 - - - - SE 15 19 8 10 1020.1 - -
29/02:30am 21.4 - - - - SSE 17 22 9 12 1020.1 - -
29/02:20am 21.3 - - - - SSE 17 - 9 - - 1019.9 -
29/02:00am 21.5 - - - - S 19 20 10 11 1020.0 - -
29/01:30am 21.3 - - - - SSE 19 24 10 13 1020.2 - -
29/01:20am 21.3 - - - - SSE 19 - 10 - - 1020.2 -
29/01:00am 21.4 - - - - SSE 19 22 10 12 1020.4 - -
29/12:30am 21.4 - - - - SSE 19 24 10 13 1020.5 - -
29/12:20am 21.5 - - - - SSE 19 - 10 - - 1020.5 -
29/12:00am 21.4 - - - - SSE 19 24 10 13 1020.6 - -
 
Date/Time
EST
Temp
°C
App
Temp
°C
Dew
Point
Rel
Hum
%
Delta-T
°C
Wind Press
QNH
hPa
Press
MSL
hPa
Rain
since 9 am
mm
Dir
 
Spd
km/h
Gust
km/h
Spd
kts
Gust
kts
28/11:30pm 21.6 - - - - SE 20 30 11 16 1020.8 - -
28/11:20pm 21.6 - - - - SE 20 - 11 - - 1020.7 -
28/11:00pm 21.6 - - - - ESE 20 26 11 14 1021.0 - -
28/10:30pm 21.7 - - - - ESE 22 26 12 14 1021.1 - -
28/10:20pm 21.6 - - - - ESE 24 - 13 - - 1021.1 -
28/10:00pm 21.8 - - - - ESE 22 26 12 14 1021.3 - -
28/09:30pm 21.8 - - - - ESE 26 30 14 16 1021.3 - -
28/09:20pm 21.8 - - - - ESE 24 - 13 - - 1021.2 -
28/09:00pm 21.8 - - - - ESE 24 30 13 16 1021.2 - -
28/08:30pm 21.7 - - - - SE 26 32 14 17 1021.0 - -
28/08:20pm 21.7 - - - - ESE 28 - 15 - - 1020.8 -
28/08:00pm 21.7 - - - - ESE 28 33 15 18 1020.9 - -
28/07:30pm 21.7 - - - - SE 28 35 15 19 1020.7 - -
28/07:20pm 21.8 - - - - ESE 30 - 16 - - 1020.5 -

Other Formats:

Comma delimited format used in spreadsheet applications
http://www.bom.gov.au/fwo/IDQ60801/IDQ60801.94371.axf

JavaScript Object Notation format (JSON) in row-major order
http://www.bom.gov.au/fwo/IDQ60801/IDQ60801.94371.json